createdAt,value
2023-01-07T00:00:15.312Z,7.43
2023-01-07T00:03:03.567Z,7.41
2023-01-07T00:05:31.936Z,7.40
2023-01-07T00:08:00.198Z,7.39
2023-01-07T00:10:28.493Z,7.43
2023-01-07T00:12:56.745Z,7.46
2023-01-07T00:15:24.812Z,7.53
2023-01-07T00:17:52.872Z,7.70
2023-01-07T00:20:21.248Z,7.68
2023-01-07T00:22:50.718Z,7.62
2023-01-07T00:25:18.755Z,7.59
2023-01-07T00:27:47.094Z,7.56
2023-01-07T00:30:16.128Z,7.60
2023-01-07T00:32:59.715Z,7.60
2023-01-07T00:35:28.524Z,7.48
2023-01-07T00:37:56.598Z,7.40
2023-01-07T00:40:24.640Z,7.43
2023-01-07T00:42:55.685Z,7.49
2023-01-07T00:45:25.484Z,7.60
2023-01-07T00:47:53.633Z,7.74
2023-01-07T00:50:22.960Z,7.72
2023-01-07T00:52:51.073Z,7.75
2023-01-07T00:55:19.131Z,7.70
2023-01-07T00:57:47.022Z,7.69
2023-01-07T01:00:17.163Z,7.62
2023-01-07T01:02:46.821Z,7.63
2023-01-07T01:05:15.546Z,7.71
2023-01-07T01:07:43.756Z,7.74
2023-01-07T01:10:15.911Z,7.74
2023-01-07T01:12:44.502Z,7.87
2023-01-07T01:15:14.447Z,7.91
2023-01-07T01:17:42.938Z,7.87
2023-01-07T01:20:13.896Z,7.83
2023-01-07T01:22:43.357Z,7.84
2023-01-07T01:25:12.249Z,7.85
2023-01-07T01:27:40.204Z,7.89
2023-01-07T01:30:08.606Z,7.90
2023-01-07T01:32:38.140Z,7.88
2023-01-07T01:35:06.791Z,7.88
2023-01-07T01:37:34.779Z,7.97
2023-01-07T01:40:04.058Z,7.95
2023-01-07T01:42:32.949Z,8.00
2023-01-07T01:45:02.197Z,8.03
2023-01-07T01:47:36.312Z,8.04
2023-01-07T01:50:07.880Z,7.99
2023-01-07T01:52:48.909Z,7.94
2023-01-07T01:55:22.657Z,7.97
2023-01-07T01:57:55.956Z,8.00
2023-01-07T02:00:24.778Z,8.05
2023-01-07T02:02:57.198Z,8.14
2023-01-07T02:05:33.215Z,8.23
2023-01-07T02:08:01.293Z,8.07
2023-01-07T02:10:31.956Z,8.05
2023-01-07T02:13:19.436Z,8.08
2023-01-07T02:15:56.063Z,7.95
2023-01-07T02:18:52.544Z,7.82
2023-01-07T02:21:32.757Z,7.71
2023-01-07T02:24:03.715Z,7.74
2023-01-07T02:26:50.548Z,7.68
2023-01-07T02:29:38.235Z,7.63
2023-01-07T02:32:50.438Z,7.63
2023-01-07T02:35:56.242Z,7.62
2023-01-07T02:38:41.209Z,7.64
2023-01-07T02:41:29.036Z,7.68
2023-01-07T02:44:10.749Z,7.73
2023-01-07T02:46:52.497Z,7.69
2023-01-07T02:49:21.900Z,7.61
2023-01-07T02:51:52.008Z,7.61
2023-01-07T02:54:27.381Z,7.65
2023-01-07T02:57:01.460Z,7.59
2023-01-07T02:59:40.855Z,7.59
2023-01-07T03:02:28.815Z,7.42
2023-01-07T03:05:33.828Z,7.42
2023-01-07T03:08:24.665Z,7.51
2023-01-07T03:10:59.719Z,7.47
2023-01-07T03:14:06.195Z,7.39
2023-01-07T03:16:42.211Z,7.33
2023-01-07T03:19:14.877Z,7.34
2023-01-07T03:21:45.157Z,7.32
2023-01-07T03:24:14.866Z,7.33
2023-01-07T03:26:47.223Z,7.33
2023-01-07T03:29:17.602Z,7.39
2023-01-07T03:32:06.034Z,7.29
2023-01-07T03:34:35.064Z,7.22
2023-01-07T03:37:10.588Z,7.13
2023-01-07T03:39:43.785Z,7.05
2023-01-07T03:42:32.123Z,6.97
2023-01-07T03:45:01.760Z,6.98
2023-01-07T03:47:32.074Z,6.99
2023-01-07T03:50:00.121Z,7.05
2023-01-07T03:52:28.513Z,7.07
2023-01-07T03:54:56.541Z,7.14
2023-01-07T03:57:24.489Z,7.18
2023-01-07T03:59:52.489Z,7.17
2023-01-07T04:02:20.519Z,7.20
2023-01-07T04:04:49.613Z,7.20
2023-01-07T04:07:17.741Z,7.15
2023-01-07T04:09:47.282Z,7.22
2023-01-07T04:12:15.291Z,7.20
2023-01-07T04:14:43.644Z,7.15
2023-01-07T04:17:12.379Z,7.11
2023-01-07T04:19:40.317Z,7.10
2023-01-07T04:22:10.316Z,7.07
2023-01-07T04:24:38.362Z,7.13
2023-01-07T04:27:06.453Z,7.20
2023-01-07T04:29:34.322Z,7.30
2023-01-07T04:32:02.913Z,7.29
2023-01-07T04:34:31.246Z,7.34
2023-01-07T04:36:59.660Z,7.34
2023-01-07T04:39:28.485Z,7.42
2023-01-07T04:41:57.582Z,7.52
2023-01-07T04:44:25.558Z,7.69
2023-01-07T04:46:53.992Z,7.79
2023-01-07T04:49:22.353Z,7.85
2023-01-07T04:51:50.607Z,7.96
2023-01-07T04:54:18.696Z,7.95
2023-01-07T04:56:46.728Z,7.76
2023-01-07T04:59:14.577Z,7.68
2023-01-07T05:01:43.420Z,7.67
2023-01-07T05:04:11.996Z,7.73
2023-01-07T05:06:40.011Z,7.69
2023-01-07T05:09:08.551Z,7.47
2023-01-07T05:11:36.519Z,7.40
2023-01-07T05:14:04.932Z,7.57
2023-01-07T05:16:33.843Z,7.72
2023-01-07T05:19:04.760Z,7.79
2023-01-07T05:21:35.149Z,7.85
2023-01-07T05:24:03.914Z,7.92
2023-01-07T05:26:32.037Z,8.01
2023-01-07T05:29:00.059Z,8.05
2023-01-07T05:31:29.037Z,7.96
2023-01-07T05:33:57.066Z,7.95
2023-01-07T05:36:25.318Z,7.96
2023-01-07T05:38:54.274Z,7.85
2023-01-07T05:41:22.289Z,7.74
2023-01-07T05:43:50.395Z,7.71
2023-01-07T05:46:18.584Z,7.70
2023-01-07T05:48:46.501Z,7.56
2023-01-07T05:51:14.417Z,7.54
2023-01-07T05:53:42.386Z,7.74
2023-01-07T05:56:10.257Z,7.81
2023-01-07T05:58:38.271Z,7.83
2023-01-07T06:01:06.182Z,7.79
2023-01-07T06:03:36.621Z,7.86
2023-01-07T06:06:07.380Z,7.91
2023-01-07T06:08:39.752Z,7.76
2023-01-07T06:11:08.497Z,7.56
2023-01-07T06:13:36.613Z,7.33
2023-01-07T06:16:07.656Z,7.32
2023-01-07T06:18:36.364Z,7.28
2023-01-07T06:21:04.710Z,7.30
2023-01-07T06:23:32.752Z,7.32
2023-01-07T06:26:00.850Z,7.52
2023-01-07T06:28:29.022Z,7.63
2023-01-07T06:30:57.413Z,7.65
2023-01-07T06:33:25.892Z,7.63
2023-01-07T06:35:53.802Z,7.70
2023-01-07T06:38:22.315Z,7.69
2023-01-07T06:40:51.987Z,7.65
2023-01-07T06:43:20.262Z,7.62
2023-01-07T06:45:48.582Z,7.63
2023-01-07T06:48:17.342Z,7.45
2023-01-07T06:50:46.332Z,7.45
2023-01-07T06:53:15.319Z,7.54
2023-01-07T06:55:49.209Z,7.55
2023-01-07T06:58:18.129Z,7.53
2023-01-07T07:00:46.637Z,7.49
2023-01-07T07:03:14.783Z,7.53
2023-01-07T07:05:42.975Z,7.52
2023-01-07T07:08:11.454Z,7.58
2023-01-07T07:10:43.262Z,7.66
2023-01-07T07:13:12.148Z,7.70
2023-01-07T07:15:40.553Z,7.85
2023-01-07T07:18:08.964Z,7.90
2023-01-07T07:20:37.130Z,7.86
2023-01-07T07:23:05.089Z,7.89
2023-01-07T07:25:33.116Z,7.91
2023-01-07T07:28:01.141Z,7.83
2023-01-07T07:30:46.866Z,7.70
2023-01-07T07:33:19.391Z,7.66
2023-01-07T07:35:48.439Z,7.63
2023-01-07T07:38:17.859Z,7.60
2023-01-07T07:40:46.904Z,7.62
2023-01-07T07:43:15.922Z,7.66
2023-01-07T07:45:44.592Z,7.59
2023-01-07T07:48:15.286Z,7.66
2023-01-07T07:50:45.194Z,7.77
2023-01-07T07:53:15.299Z,7.89
2023-01-07T07:55:44.102Z,7.84
2023-01-07T07:58:12.919Z,7.61
2023-01-07T08:00:42.179Z,7.58
2023-01-07T08:03:11.103Z,7.63
2023-01-07T08:05:42.343Z,7.70
2023-01-07T08:08:13.922Z,7.72
2023-01-07T08:10:42.359Z,7.83
2023-01-07T08:13:10.548Z,7.91
2023-01-07T08:15:38.515Z,7.77
2023-01-07T08:18:10.078Z,7.79
2023-01-07T08:20:39.717Z,7.83
2023-01-07T08:23:08.213Z,7.94
2023-01-07T08:25:36.717Z,8.01
2023-01-07T08:28:05.458Z,8.08
2023-01-07T08:30:33.981Z,8.22
2023-01-07T08:33:08.755Z,8.32
2023-01-07T08:35:37.140Z,8.35
2023-01-07T08:38:07.420Z,8.35
2023-01-07T08:40:37.504Z,8.34
2023-01-07T08:43:07.580Z,8.25
2023-01-07T08:45:35.918Z,8.12
2023-01-07T08:48:05.105Z,8.21
2023-01-07T08:50:34.516Z,8.47
2023-01-07T08:53:02.431Z,8.53
2023-01-07T08:55:30.396Z,8.55
2023-01-07T08:57:58.745Z,8.61
2023-01-07T09:00:27.381Z,8.86
2023-01-07T09:02:55.519Z,8.89
2023-01-07T09:05:24.636Z,8.94
2023-01-07T09:07:53.793Z,9.08
2023-01-07T09:10:22.415Z,8.98
2023-01-07T09:12:53.176Z,8.84
2023-01-07T09:15:21.764Z,8.78
2023-01-07T09:17:49.836Z,8.83
2023-01-07T09:20:17.979Z,8.72
2023-01-07T09:22:47.054Z,8.86
2023-01-07T09:25:16.008Z,8.93
2023-01-07T09:27:46.378Z,8.87
2023-01-07T09:30:15.587Z,8.91
2023-01-07T09:32:46.497Z,9.03
2023-01-07T09:35:16.313Z,9.09
2023-01-07T09:37:45.167Z,9.10
2023-01-07T09:40:23.030Z,9.13
2023-01-07T09:43:09.211Z,9.19
2023-01-07T09:45:43.471Z,9.35
2023-01-07T09:48:41.003Z,9.36
2023-01-07T09:51:34.929Z,9.28
2023-01-07T09:54:06.329Z,9.01
2023-01-07T09:56:37.155Z,9.19
2023-01-07T09:59:07.409Z,9.37
2023-01-07T10:01:35.652Z,9.61
2023-01-07T10:04:50.089Z,9.77
2023-01-07T10:07:33.220Z,9.76
2023-01-07T10:10:07.839Z,9.93
2023-01-07T10:12:48.969Z,10.12
2023-01-07T10:15:45.306Z,10.26
2023-01-07T10:18:16.867Z,10.40
2023-01-07T10:21:10.095Z,10.59
2023-01-07T10:23:46.325Z,10.56
2023-01-07T10:26:42.074Z,10.60
2023-01-07T10:29:39.875Z,10.66
2023-01-07T10:32:19.838Z,10.75
2023-01-07T10:34:51.866Z,10.73
2023-01-07T10:37:50.717Z,10.89
2023-01-07T10:40:32.874Z,10.97
2023-01-07T10:43:20.137Z,10.95
2023-01-07T10:46:11.242Z,11.03
2023-01-07T10:49:06.152Z,11.09
2023-01-07T10:51:43.022Z,11.29
2023-01-07T10:54:29.748Z,11.32
2023-01-07T10:57:04.104Z,11.55
2023-01-07T10:59:33.148Z,11.76
2023-01-07T11:02:01.729Z,11.75
2023-01-07T11:04:30.501Z,11.73
2023-01-07T11:07:06.918Z,11.64
2023-01-07T11:09:39.506Z,11.49
2023-01-07T11:12:19.842Z,11.33
2023-01-07T11:14:50.041Z,11.64
2023-01-07T11:17:37.666Z,11.97
2023-01-07T11:20:07.016Z,12.05
2023-01-07T11:22:37.761Z,12.16
2023-01-07T11:25:28.430Z,12.16
2023-01-07T11:27:59.744Z,12.18
2023-01-07T11:30:32.535Z,12.34
2023-01-07T11:33:06.369Z,12.37
2023-01-07T11:35:35.034Z,12.17
2023-01-07T11:38:23.126Z,11.99
2023-01-07T11:40:57.863Z,11.97
2023-01-07T11:43:48.701Z,11.93
2023-01-07T11:46:20.302Z,11.94
2023-01-07T11:48:53.997Z,11.90
2023-01-07T11:51:24.922Z,11.88
2023-01-07T11:53:57.745Z,11.84
2023-01-07T11:56:29.348Z,11.93
2023-01-07T11:59:16.287Z,12.05
2023-01-07T12:01:50.315Z,12.10
2023-01-07T12:04:23.558Z,12.12
2023-01-07T12:07:00.574Z,12.19
2023-01-07T12:09:32.580Z,12.29
2023-01-07T12:12:40.441Z,12.42
2023-01-07T12:15:24.356Z,12.47
2023-01-07T12:18:03.620Z,12.45
2023-01-07T12:20:48.164Z,12.43
2023-01-07T12:23:29.216Z,12.53
2023-01-07T12:26:08.216Z,12.40
2023-01-07T12:28:57.690Z,12.50
2023-01-07T12:31:38.665Z,12.46
2023-01-07T12:34:33.441Z,12.48
2023-01-07T12:37:32.371Z,12.51
2023-01-07T12:40:13.108Z,12.66
2023-01-07T12:42:51.187Z,12.56
2023-01-07T12:45:26.453Z,12.59
2023-01-07T12:48:02.591Z,12.43
2023-01-07T12:50:51.156Z,12.31
2023-01-07T12:53:35.758Z,12.20
2023-01-07T12:56:13.180Z,12.10
2023-01-07T12:58:52.372Z,11.97
2023-01-07T13:01:27.084Z,11.86
2023-01-07T13:04:04.991Z,11.83
2023-01-07T13:07:17.078Z,11.82
2023-01-07T13:09:54.093Z,11.89
2023-01-07T13:12:45.430Z,12.01
2023-01-07T13:15:23.664Z,11.88
2023-01-07T13:18:03.511Z,11.84
2023-01-07T13:20:50.968Z,11.82
2023-01-07T13:23:57.074Z,11.95
2023-01-07T13:26:35.701Z,11.97
2023-01-07T13:29:42.013Z,11.88
2023-01-07T13:32:23.186Z,11.93
2023-01-07T13:35:22.367Z,11.98
2023-01-07T13:38:02.946Z,12.01
2023-01-07T13:40:51.349Z,11.99
2023-01-07T13:43:55.269Z,12.01
2023-01-07T13:46:35.608Z,12.12
2023-01-07T13:49:04.626Z,12.31
2023-01-07T13:51:38.299Z,12.29
2023-01-07T13:54:11.818Z,12.33
2023-01-07T13:56:40.697Z,12.41
2023-01-07T13:59:30.114Z,12.45
2023-01-07T14:02:18.829Z,12.39
2023-01-07T14:05:11.129Z,12.38
2023-01-07T14:07:55.676Z,12.24
2023-01-07T14:10:34.693Z,12.11
2023-01-07T14:13:12.868Z,12.05
2023-01-07T14:15:51.310Z,11.95
2023-01-07T14:18:55.603Z,11.78
2023-01-07T14:21:45.959Z,11.55
2023-01-07T14:25:02.220Z,11.35
2023-01-07T14:27:43.270Z,11.27
2023-01-07T14:30:26.033Z,11.21
2023-01-07T14:33:00.200Z,11.25
2023-01-07T14:35:41.222Z,11.27
2023-01-07T14:38:50.004Z,11.18
2023-01-07T14:41:21.355Z,11.11
2023-01-07T14:44:03.184Z,11.11
2023-01-07T14:46:35.009Z,11.01
2023-01-07T14:49:11.251Z,11.00
2023-01-07T14:52:10.319Z,11.02
2023-01-07T14:54:51.344Z,11.06
2023-01-07T14:57:55.806Z,11.10
2023-01-07T15:00:50.062Z,11.06
2023-01-07T15:03:37.644Z,11.03
2023-01-07T15:06:21.195Z,10.92
2023-01-07T15:09:21.759Z,10.84
2023-01-07T15:12:12.365Z,10.82
2023-01-07T15:15:07.959Z,10.78
2023-01-07T15:17:39.404Z,10.70
2023-01-07T15:20:10.451Z,10.77
2023-01-07T15:23:21.829Z,10.82
2023-01-07T15:26:06.290Z,10.76
2023-01-07T15:29:08.968Z,10.66
2023-01-07T15:32:03.694Z,10.61
2023-01-07T15:34:38.351Z,10.58
2023-01-07T15:37:11.370Z,10.64
2023-01-07T15:39:45.553Z,10.62
2023-01-07T15:42:17.563Z,10.66
2023-01-07T15:44:50.953Z,10.73
2023-01-07T15:47:37.509Z,10.76
2023-01-07T15:50:28.859Z,10.81
2023-01-07T15:53:12.673Z,10.84
2023-01-07T15:56:06.150Z,10.77
2023-01-07T15:58:46.360Z,10.70
2023-01-07T16:01:21.556Z,10.67
2023-01-07T16:03:54.163Z,10.69
2023-01-07T16:06:46.354Z,10.73
2023-01-07T16:09:18.742Z,10.79
2023-01-07T16:11:47.771Z,10.84
2023-01-07T16:14:21.023Z,10.90
2023-01-07T16:17:04.716Z,10.91
2023-01-07T16:19:33.089Z,10.87
2023-01-07T16:22:01.365Z,10.87
2023-01-07T16:24:29.994Z,10.85
2023-01-07T16:27:05.162Z,10.78
2023-01-07T16:29:39.543Z,10.68
2023-01-07T16:32:08.023Z,10.71
2023-01-07T16:34:36.959Z,10.68
2023-01-07T16:37:14.407Z,10.68
2023-01-07T16:39:47.623Z,10.65
2023-01-07T16:42:21.391Z,10.56
2023-01-07T16:44:56.000Z,10.42
2023-01-07T16:47:27.596Z,10.38
2023-01-07T16:49:59.228Z,10.33
2023-01-07T16:52:34.653Z,10.14
2023-01-07T16:55:04.216Z,10.02
2023-01-07T16:57:42.121Z,10.02
2023-01-07T17:00:20.256Z,10.06
2023-01-07T17:02:57.849Z,10.01
2023-01-07T17:05:38.055Z,9.94
2023-01-07T17:08:20.687Z,9.86
2023-01-07T17:11:16.401Z,9.71
2023-01-07T17:13:45.776Z,9.69
2023-01-07T17:16:31.230Z,9.60
2023-01-07T17:19:26.217Z,9.55
2023-01-07T17:21:57.073Z,9.55
2023-01-07T17:24:29.449Z,9.58
2023-01-07T17:27:00.682Z,9.53
2023-01-07T17:29:49.430Z,9.45
2023-01-07T17:32:18.377Z,9.36
2023-01-07T17:34:46.549Z,9.33
2023-01-07T17:37:16.859Z,9.13
2023-01-07T17:39:45.061Z,9.09
2023-01-07T17:42:41.695Z,9.07
2023-01-07T17:45:19.649Z,9.01
2023-01-07T17:47:49.791Z,8.93
2023-01-07T17:50:19.613Z,8.75
2023-01-07T17:52:53.157Z,8.61
2023-01-07T17:55:30.772Z,8.47
2023-01-07T17:58:01.333Z,8.21
2023-01-07T18:00:33.523Z,8.07
2023-01-07T18:03:01.848Z,8.04
2023-01-07T18:05:30.356Z,7.97
2023-01-07T18:08:01.306Z,7.82
2023-01-07T18:10:51.887Z,7.78
2023-01-07T18:13:20.807Z,7.61
2023-01-07T18:15:49.677Z,7.40
2023-01-07T18:18:19.603Z,7.27
2023-01-07T18:20:49.370Z,7.11
2023-01-07T18:23:18.327Z,7.02
2023-01-07T18:25:47.200Z,7.07
2023-01-07T18:28:16.824Z,7.08
2023-01-07T18:30:46.298Z,7.09
2023-01-07T18:33:15.580Z,7.07
2023-01-07T18:35:45.093Z,7.04
2023-01-07T18:38:19.375Z,7.02
2023-01-07T18:40:48.062Z,6.84
2023-01-07T18:43:18.788Z,6.61
2023-01-07T18:45:48.482Z,6.41
2023-01-07T18:48:19.096Z,6.27
2023-01-07T18:50:50.382Z,6.26
2023-01-07T18:53:19.757Z,6.18
2023-01-07T18:55:59.283Z,6.08
2023-01-07T18:58:27.751Z,6.09
2023-01-07T19:01:01.685Z,6.11
2023-01-07T19:03:30.339Z,6.20
2023-01-07T19:06:05.098Z,6.35
2023-01-07T19:08:36.979Z,6.43
2023-01-07T19:11:14.187Z,6.48
2023-01-07T19:13:46.809Z,6.49
2023-01-07T19:16:20.969Z,6.35
2023-01-07T19:18:53.369Z,5.99
2023-01-07T19:21:22.096Z,5.68
2023-01-07T19:23:55.588Z,5.55
2023-01-07T19:26:23.823Z,5.48
2023-01-07T19:28:52.604Z,5.44
2023-01-07T19:31:20.904Z,5.47
2023-01-07T19:33:49.891Z,5.50
2023-01-07T19:36:24.190Z,5.45
2023-01-07T19:38:53.365Z,5.39
2023-01-07T19:41:22.825Z,5.47
2023-01-07T19:44:00.161Z,5.43
2023-01-07T19:46:28.916Z,5.33
2023-01-07T19:48:59.330Z,5.30
2023-01-07T19:51:33.940Z,5.32
2023-01-07T19:54:06.949Z,5.32
2023-01-07T19:56:36.685Z,5.26
2023-01-07T19:59:05.970Z,5.16
2023-01-07T20:01:37.837Z,5.04
2023-01-07T20:04:08.309Z,4.91
2023-01-07T20:06:41.771Z,4.82
2023-01-07T20:09:14.313Z,4.67
2023-01-07T20:11:44.808Z,4.53
2023-01-07T20:14:17.031Z,4.46
2023-01-07T20:16:47.431Z,4.51
2023-01-07T20:19:21.287Z,4.56
2023-01-07T20:21:51.963Z,4.67
2023-01-07T20:24:28.625Z,4.79
2023-01-07T20:27:07.977Z,4.84
2023-01-07T20:29:41.421Z,4.84
2023-01-07T20:32:12.729Z,4.82
2023-01-07T20:34:49.282Z,4.84
2023-01-07T20:37:19.454Z,4.88
2023-01-07T20:39:51.290Z,4.88
2023-01-07T20:42:23.679Z,4.96
2023-01-07T20:44:53.307Z,5.00
2023-01-07T20:47:23.281Z,4.97
2023-01-07T20:49:53.974Z,5.02
2023-01-07T20:52:24.242Z,5.09
2023-01-07T20:55:10.866Z,5.16
2023-01-07T20:57:41.194Z,5.22
2023-01-07T21:00:11.807Z,5.25
2023-01-07T21:02:42.873Z,5.35
2023-01-07T21:05:12.493Z,5.40
2023-01-07T21:07:43.956Z,5.45
2023-01-07T21:10:18.183Z,5.27
2023-01-07T21:12:50.546Z,5.13
2023-01-07T21:15:21.310Z,5.00
2023-01-07T21:17:53.732Z,4.83
2023-01-07T21:20:23.480Z,4.64
2023-01-07T21:22:52.659Z,4.59
2023-01-07T21:25:21.226Z,4.55
2023-01-07T21:27:50.038Z,4.55
2023-01-07T21:30:19.803Z,4.51
2023-01-07T21:32:48.618Z,4.37
2023-01-07T21:35:18.203Z,4.20
2023-01-07T21:37:50.307Z,4.07
2023-01-07T21:40:19.022Z,3.92
2023-01-07T21:42:47.353Z,3.85
2023-01-07T21:45:18.527Z,3.84
2023-01-07T21:47:47.274Z,3.70
2023-01-07T21:50:17.126Z,3.64
2023-01-07T21:52:46.493Z,3.61
2023-01-07T21:55:15.123Z,3.63
2023-01-07T21:57:43.757Z,3.61
2023-01-07T22:00:16.126Z,3.71
2023-01-07T22:02:45.329Z,3.76
2023-01-07T22:05:14.228Z,3.81
2023-01-07T22:07:42.850Z,3.81
2023-01-07T22:10:11.606Z,3.77
2023-01-07T22:12:40.210Z,3.77
2023-01-07T22:15:09.408Z,3.78
2023-01-07T22:17:38.252Z,3.82
2023-01-07T22:20:07.525Z,3.90
2023-01-07T22:22:36.383Z,3.98
2023-01-07T22:25:05.142Z,4.05
2023-01-07T22:27:34.121Z,4.13
2023-01-07T22:30:03.011Z,4.26
2023-01-07T22:32:31.189Z,4.23
2023-01-07T22:35:00.424Z,4.28
2023-01-07T22:37:29.997Z,4.36
2023-01-07T22:40:03.278Z,4.42
2023-01-07T22:42:43.585Z,4.46
2023-01-07T22:45:21.025Z,4.48
2023-01-07T22:47:51.290Z,4.54
2023-01-07T22:50:20.642Z,4.59
2023-01-07T22:52:52.955Z,4.64
2023-01-07T22:55:21.686Z,4.69
2023-01-07T22:57:51.312Z,4.69
2023-01-07T23:00:53.245Z,4.76
2023-01-07T23:03:24.161Z,4.79
2023-01-07T23:05:54.247Z,4.71
2023-01-07T23:08:23.920Z,4.63
2023-01-07T23:10:51.911Z,4.56
2023-01-07T23:13:20.158Z,4.47
2023-01-07T23:15:48.274Z,4.31
2023-01-07T23:18:17.039Z,4.31
2023-01-07T23:20:45.401Z,4.32
2023-01-07T23:23:13.886Z,4.44
2023-01-07T23:25:46.901Z,4.53
2023-01-07T23:28:17.491Z,4.59
2023-01-07T23:30:46.178Z,4.51
2023-01-07T23:33:14.841Z,4.46
2023-01-07T23:35:43.323Z,4.41
2023-01-07T23:38:11.309Z,4.45
2023-01-07T23:40:42.328Z,4.48
2023-01-07T23:43:11.200Z,4.46
2023-01-07T23:45:39.914Z,4.41
2023-01-07T23:48:08.193Z,4.44
2023-01-07T23:50:36.327Z,4.38
2023-01-07T23:53:04.387Z,4.26
2023-01-07T23:55:33.083Z,4.15
2023-01-07T23:58:01.039Z,3.99
